Timeline UpdatesTrip UpdatesNews PostsPvt PostsTravel TipsAdmin PostsConv PostsFollowed PostsChat RequestsBlog PostsPNR Posts

Disclaimer
Search
 
 
Wed Jul 23, 2014 07:11:18 ISTHomeTrainsΣChainsAtlasPNRForumGalleryNewsFAQTripsMembersLoginFeedback
No Recent News for this Train
Other Trains in the News **new
Latest...
.
Sat Feb 02, 2013 (04:11PM)
⇐ Return Journey: Train# 51188

51187/Bhusaval Katni Passenger (UnReserved)

Feb 01 2014 (2:01PM)
Change Departure Station:
Change Arrival Station:
Post a Train Travel TipPost a Train Travel Tip **new
Post a Comment/Question/Picture/VideoPost a Comment/Question/Picture/Video
Pantry/Catering
???
RSA - Rake Sharing
Rake/Coach Composition
Loco
BSL-ET: BSL/ET WAP-4 ET-KTE: ET/KTE WDM-3A
News    PNR    Forum    Time-Table    Availability    Fare Chart    Map    Arr/Dep History    Trips    Gallery    ΣChains    X/O    Timeline    
Travel Time: 11h 42m    39 halts    Distance: 384 km    Avg Speed: 32 km/hr
Type: Passenger
Zone: CR/Central
Departs @ 15:43
Platform# ???
SMTWTFS
Pagdhal/PGL 
Arrives @ 03:25 +1 night
Platform# ???
SMTWTFS
Katni Junction/KTE 

39 halts. 45 intermediate Stations between Pagdhal and Katni Junction

Show ALL intermediate Stations  Show Old Time-Table

#CodeStation NameX/OArrivesAvgDepartsAvgHaltPFDay#KmSpeedElevZoneAddress
1BSLBhusaval Junction (8)  -09:30---1-258.737208mCRBhusaval 425201, Maharashtra
2DSKDuskheda (2)X  09:41-09:42-1m--1-252.047213mCRDuskheda Station, Maharashtra
3SAVSavda (2)X  09:53-09:54-1m--1-243.348220mCRSavda, Maharashtra
4NBNimbhora  10:05-10:06-1m--1-234.655229mCRJalgaon, Maharashtra
5RVRaver (2)  10:17-10:18-1m--1-224.454242mCRJalgaon, Maharashtra
6WGAWaghodaX  10:29-10:30-1m--1-214.544259mCRChorwad, Maharashtra
7BAUBurhanpur (2)X  10:44-10:45-1m21-204.260269mCRBurhanpur, Madhya Pradesh
8AGQAsirgarh Road (2)  10:54-10:55-1m--1-195.368259mCRState Highway 27, Madhya Pradesh
9CDIChandni (2)X  11:04-11:05-1m--1-185.147276mCRNepanagar Rd, Madhya Pradesh
10NPNRNepanagar (2)  11:14-11:15-1m--1-178.050289mCRState Highway 27, Madhya Pradesh
11MWAMandwa (2)X  11:22-11:23-1m--1-172.260317mCRState Highway 27, Madhya Pradesh
12SXASagphata (2)  11:29-11:30-1m--1-166.266350mCRKhandwa, Madhya Pradesh
13DGNDongargaon (2)X  11:37-11:38-1m--1-158.591373mCRBorgaon, Madhya Pradesh
14KDKKohdad (2)X  11:43-11:44-1m--1-150.953344mCRState Highway 15, Madhya Pradesh
15BMABagmar (2)X  11:49-11:50-1m--1-146.590335mCRState Highway 27, Madhya Pradesh
16BRGJBargaon Gujar (2)X  11:54-11:55-1m--1-140.56316mCRKhandwa, Madhya Pradesh
17KNWKhandwa Junction (5)X  12:50-12:55-5m--1-135.444310mCRKhandwa, Madhya Pradesh
18MTAMathela (2)  13:05-13:06-1m--1-128.056322mWCRKhandwa, Madhya Pradesh
19TLVTalvadiya (2)X  13:15-13:16-1m--1-119.671308mWCRKhandwa, Madhya Pradesh
20SGBJSurgaon Banjari (2)  13:26-13:27-1m--1-107.974298mWCRKhandwa, Madhya Pradesh
21CKKDCharkheda Khurd (2)  13:36-13:37-1m--1-96.751274mWCRKhandwa, Madhya Pradesh
22CAERChhanera (2)  13:45-13:46-1m--1-89.961283mWCRChhanera, Madhya Pradesh
23BRUDBarud (2)X  13:56-13:57-1m--1-79.857273mWCRKhandwa, Madhya Pradesh
24DRHIDagarhkeri (2)X  14:07-14:08-1m--1-70.266274mWCRState Highway 15, Madhya Pradesh
25KKNKhirkiya (2)X  14:18-14:19-1m21-59.348281mWCRSH 15, Madhya Pradesh
26KROKurawan (2)X  14:27-14:29-2m--1-52.940297mWCRSH 15, Madhya Pradesh
27BRIBhiringi (2)X  14:39-14:40-1m--1-46.244294mWCRSH 15, Madhya Pradesh
28MUOMasangaon (2)  14:47-14:48-1m--1-41.151303mWCRSH 15, Madhya Pradesh
29PALPalasner (2)  14:55-14:56-1m--1-35.144296mWCRHarda, Madhya Pradesh
30HDHarda (3)X  15:06-15:07-1m--1-27.753289mWCRHarda, Madhya Pradesh
31CRKCharkhera (2)  15:15-15:16-1m--1-20.753298mWCRBarkalan, Madhya Pradesh
32TBNTimarni (2)  15:24-15:25-1m--1-13.671308mWCRTimarni, Madhya Pradesh
33CGOChhidgaon (2)X  15:33-15:35-2m--1-4.135309mWCRHarda, Madhya Pradesh
34PGL»Pagdhal (2)»X  15:42-15:43-1m--10.055317mWCRPagdhal, Madhya Pradesh
35BIFBhaironpur (2)X  15:51-15:52-1m--17.355322mWCRSH 15, Madhya Pradesh
36BPFBanapura (2)  16:00-16:01-1m--114.655314mWCRBanapura, Madhya Pradesh
37DKIDharamkundi (2)  16:10-16:11-1m--122.855314mWCRSH 15, Madhya Pradesh
38KTZKhutwansa (2)X  16:19-16:20-1m--130.238325mWCRSH 15, Madhya Pradesh
39DRADularia (2)O  16:29-16:30-1m--135.812318mWCRItarsi, Madhya Pradesh
40ETItarsi Junction (7)X  17:30-17:50-20m--148.163329mWCRItarsi 461111, Madhya Pradesh
41GROGurra (2)  18:00-18:02-2m--158.660327mWCRItarsi, Madhya Pradesh
42SQLSontalai (2)  18:11-18:13-2m--167.646329mWCRItarsi, Madhya Pradesh
43BGTABagratawa (2)X  18:22-18:24-2m--174.571338mWCRBagra Tawa, Madhya Pradesh
44GMDGuramkhedi (2)  18:35-18:37-2m--187.660337mWCRGuramkhedi, Madhya Pradesh
45SGPSohagpur (2)X  18:47-18:49-2m--197.660340mWCRSohagpur, Madhya Pradesh
46SXFSobhapur (2)  18:58-19:00-2m--1106.665338mWCRState Highway 22, Madhya Pradesh
47PPIPipariya (3)X  19:08-19:09-1m31115.376338mWCRPiparia, Madhya Pradesh
48BKHBankhedi (2)  19:24-19:25-1m--1134.248351mWCRBankheri, Madhya Pradesh
49JHTJunehta (2)X  19:33-19:34-1m--1140.661353mWCRState Highway 22, Madhya Pradesh
50SCKRSalichauka Road (2)X  19:44-19:45-1m--1150.870355mWCRGadarwara, Madhya Pradesh
51GARGadarwara (2)  19:57-19:58-1m11164.765352mWCRNarsinghpur, Madhya Pradesh
52BNEBohani (2)O  20:10-20:11-1m21177.645361mWCRNarsinghpur, Madhya Pradesh
53KFYKarapgaon (2)X  20:20-20:21-1m--1184.438363mWCRNational Highway 26, Madhya Pradesh
54KYKareli (2)X  20:34-20:35-1m11192.643361mWCRKareli, Madhya Pradesh
55NUNarsinghpur (2)  20:58-21:00-2m11209.050365mWCRNarsimhapur, Madhya Pradesh
56GPCGhatpindrai (2)X  21:07-21:08-1m--1214.837366mWCRGhatpindra, Madhya Pradesh
57BELDBelkhera (2)  21:17-21:18-1m--1220.333367mWCRState Highway 22, Madhya Pradesh
58KKBKarak Bel (2)XO  21:26-21:28-2m11224.713375mWCRKarak Bel, Madhya Pradesh
59SRIDShridham (3)O  22:38-22:40-2m21240.055373mWCRShridham, Madhya Pradesh
60BMRBikrampur (2)  22:53-22:54-1m--1251.958353mWCRBikrampur Dist Narsingpur., Madhya Pradesh
61BHTNBhitoni (2)X  23:06-23:07-1m--1263.566377mWCRJabalpur, Madhya Pradesh
62BRGTBheraghat (2)X  23:19-23:20-1m--1276.618389mWCRBheraghat, Madhya Pradesh
63MMLMadan Mahal (3)  00:03-00:05-2m32289.76428mWCRJabalpur, Madhya Pradesh
64JBPJabalpur Junction (4)X  00:40-00:50-10m22293.344416mWCRJabalpur, Madhya Pradesh
65ADTLAdhartal (2)X  01:01-01:03-2m--2301.259393mWCRJabalpur, Madhya Pradesh
66DOEDeori (2)  01:12-01:14-2m--2310.063392mWCRJabalpur, Madhya Pradesh
67GSPRGosalpur (2)XO  01:24-01:26-2m--2320.674396mWCRJabalpur, Madhya Pradesh
68SHRSihora Road (2)XO  01:35-01:37-2m--2331.675388mWCRJabalpur, Madhya Pradesh
69DDCEDundi (2)O  01:49-01:51-2m--2346.671415mWCRDundi, Madhya Pradesh
70SBDSleemanabad Road (2)X  01:59-02:01-2m--2356.141434mWCRSleemanabad, Madhya Pradesh
71SNRRSansarpur (2)O  02:11-02:13-2m--2363.018436mWCRNational Highway 7, Madhya Pradesh
72NWRNiwar (2)  02:39-02:40-1m--2370.769412mWCRPipraundh, Madhya Pradesh
73MDRRMadhavnagar Road (2)X  02:47-02:49-2m--2378.89398mWCRMadhavnagar, Madhya Pradesh
74KTE•Katni Junction (6)•  03:25----2383.9-387mWCRKatni, Madhya Pradesh
Scroll to Top
Scroll to Bottom